Time;durP1;ratioP1;P1;durP2;ratioP2;P2;SDS_P1;SDS_P2;PMS_P1;PMS_P2;Temp;Humidity;BMP_temperature;BMP_pressure;BME280_temperature;BME280_humidity;BME280_pressure;Samples;Min_cycle;Max_cycle;Signal;HPM_P1;HPM_P2
2022/01/26 00:06:34;;;;;;;;;17.00;17.00;;;;;19.11;29.97;102918.09;5077039;28;45793;-55
2022/01/26 00:09:00;;;;;;;;;18.75;17.50;;;;;19.10;30.23;102913.72;5076922;28;45264;-58
2022/01/26 00:11:27;;;;;;;;;17.75;16.75;;;;;19.10;29.79;102921.59;5076726;27;45414;-57
2022/01/26 00:13:53;;;;;;;;;17.00;15.75;;;;;19.09;30.18;102917.25;5077106;27;46272;-58
2022/01/26 00:16:36;;;;;;;;;18.75;15.50;;;;;19.09;30.16;102921.63;5075741;27;46618;-57
2022/01/26 00:19:04;;;;;;;;;22.50;16.50;;;;;19.11;30.16;102920.72;5076879;27;45358;-56
2022/01/26 00:21:41;;;;;;;;;16.25;14.25;;;;;19.13;30.04;102921.53;5077203;27;45327;-59
2022/01/26 00:29:23;;;;;;;;;17.75;15.50;;;;;19.26;30.02;102918.72;5076652;27;45880;-56
2022/01/26 00:40:24;;;;;;;;;15.25;11.50;;;;;19.46;30.11;102924.50;5076466;28;45928;-53
2022/01/26 00:42:53;;;;;;;;;13.50;12.75;;;;;19.50;29.61;102924.44;5076682;27;45343;-52
2022/01/26 00:45:22;;;;;;;;;14.75;12.25;;;;;19.54;29.62;102926.13;5076635;28;45252;-51
2022/01/26 00:47:48;;;;;;;;;17.00;15.00;;;;;19.60;29.90;102928.63;5074964;28;45871;-53
2022/01/26 00:50:15;;;;;;;;;14.75;13.25;;;;;19.63;29.55;102925.97;5076446;27;45256;-54
2022/01/26 00:52:51;;;;;;;;;13.25;13.00;;;;;19.66;29.75;102927.66;5076521;27;45235;-55
2022/01/26 00:55:18;;;;;;;;;13.50;11.75;;;;;19.68;29.62;102921.47;5075329;27;45905;-57
2022/01/26 00:57:44;;;;;;;;;11.75;10.75;;;;;19.72;29.74;102927.56;5076163;27;46353;-55
2022/01/26 01:00:16;;;;;;;;;15.50;11.75;;;;;19.73;29.62;102927.53;5076274;27;45829;-56
2022/01/26 01:02:42;;;;;;;;;13.25;12.25;;;;;19.76;29.73;102930.09;5076605;27;45276;-53
2022/01/26 01:05:18;;;;;;;;;11.25;11.25;;;;;19.79;29.19;102931.81;5077006;27;45547;-53
2022/01/26 01:07:45;;;;;;;;;13.75;12.00;;;;;19.78;29.32;102928.31;5076171;27;45621;-52
2022/01/26 01:10:11;;;;;;;;;13.50;12.25;;;;;19.79;29.30;102923.91;5075845;27;45421;-55
2022/01/26 01:12:42;;;;;;;;;13.00;11.50;;;;;19.81;29.32;102924.75;5076404;27;45346;-54
2022/01/26 01:15:08;;;;;;;;;12.75;9.75;;;;;19.83;29.50;102919.44;5076487;27;45576;-54
2022/01/26 01:17:39;;;;;;;;;15.25;12.00;;;;;19.83;29.45;102914.19;5076152;27;45604;-52
2022/01/26 01:20:17;;;;;;;;;9.25;7.75;;;;;19.81;29.39;102916.88;5076139;27;45930;-54
2022/01/26 01:25:57;;;;;;;;;12.00;12.00;;;;;19.85;29.16;102909.78;5076011;27;45318;-54
2022/01/26 01:30:51;;;;;;;;;12.25;12.25;;;;;19.84;29.17;102921.19;5079372;28;45675;-51
2022/01/26 01:33:23;;;;;;;;;15.50;11.25;;;;;19.85;29.27;102930.81;5079312;27;45399;-55
2022/01/26 01:35:49;;;;;;;;;12.50;10.00;;;;;19.84;29.22;102927.34;5077905;27;45285;-56
2022/01/26 01:38:18;;;;;;;;;10.75;9.00;;;;;19.84;29.29;102931.72;5079087;27;45538;-56
2022/01/26 01:40:47;;;;;;;;;12.50;10.50;;;;;19.84;29.10;102927.34;5079095;27;45999;-58
2022/01/26 01:43:14;;;;;;;;;11.25;11.25;;;;;19.82;28.80;102915.97;5079312;27;45220;-58
2022/01/26 01:45:47;;;;;;;;;12.75;11.00;;;;;19.82;28.95;102915.09;5078575;27;45558;-56
2022/01/26 01:48:18;;;;;;;;;15.00;11.50;;;;;19.82;29.19;102920.34;5079015;27;46615;-59
2022/01/26 01:50:44;;;;;;;;;12.50;12.25;;;;;19.80;28.96;102920.38;5079185;27;45415;-55
2022/01/26 01:53:12;;;;;;;;;15.50;12.50;;;;;19.81;28.94;102937.03;5078264;28;45515;-56
2022/01/26 01:55:40;;;;;;;;;8.25;8.25;;;;;19.80;29.22;102937.91;5079596;27;45389;-55
2022/01/26 01:58:06;;;;;;;;;9.75;9.75;;;;;19.80;28.82;102945.81;5079320;27;46954;-57
2022/01/26 02:00:31;;;;;;;;;12.75;10.00;;;;;19.77;29.34;102937.09;5078794;27;45373;-59
2022/01/26 02:02:57;;;;;;;;;13.00;10.50;;;;;19.76;29.31;102935.38;5079048;27;45266;-57
2022/01/26 02:05:23;;;;;;;;;11.50;11.50;;;;;19.76;29.53;102937.13;5079033;27;45393;-58
2022/01/26 02:07:48;;;;;;;;;12.00;11.50;;;;;19.76;29.42;102939.75;5078658;27;46260;-58
2022/01/26 02:10:14;;;;;;;;;9.75;9.75;;;;;19.75;29.04;102938.91;5078741;28;45354;-57
2022/01/26 02:12:44;;;;;;;;;12.50;9.00;;;;;19.73;29.67;102935.41;5077476;28;45476;-59
2022/01/26 02:15:19;;;;;;;;;11.25;9.75;;;;;19.72;29.30;102944.19;5078933;27;45399;-60
2022/01/26 02:50:53;;;;;;;;;11.00;10.75;;;;;19.54;29.13;102934.03;5078484;28;45376;-61
2022/01/26 02:55:42;;;;;;;;;12.00;10.00;;;;;19.51;29.07;102934.06;5078063;27;45240;-58
2022/01/26 03:03:25;;;;;;;;;10.75;9.50;;;;;19.48;29.57;102929.75;5077921;27;45353;-60
2022/01/26 03:05:56;;;;;;;;;11.00;10.25;;;;;19.44;29.31;102921.03;5078077;28;45407;-58
2022/01/26 03:11:14;;;;;;;;;13.25;9.75;;;;;19.44;29.26;102921.03;5076595;27;46132;-59
2022/01/26 03:13:50;;;;;;;;;10.25;10.25;;;;;19.43;29.65;102913.16;5077944;27;45358;-59
2022/01/26 03:16:54;;;;;;;;;11.50;10.75;;;;;19.42;29.38;102912.31;5077903;28;45378;-60
2022/01/26 03:19:19;;;;;;;;;10.00;9.50;;;;;19.40;29.59;102915.88;5076670;28;45228;-56
2022/01/26 03:22:18;;;;;;;;;7.00;7.00;;;;;19.40;29.59;102916.72;5077509;27;45358;-56
2022/01/26 03:35:40;;;;;;;;;11.75;8.00;;;;;19.34;29.56;102908.94;5077236;28;45818;-55
2022/01/26 03:38:07;;;;;;;;;11.25;10.50;;;;;19.33;29.35;102908.97;5076477;28;45375;-56
2022/01/26 03:40:36;;;;;;;;;11.50;10.25;;;;;19.32;29.46;102905.47;5077548;27;45341;-58
2022/01/26 03:43:03;;;;;;;;;10.50;10.50;;;;;19.29;29.52;102897.63;5077179;27;46540;-56
2022/01/26 03:45:28;;;;;;;;;10.25;9.00;;;;;19.29;29.36;102906.38;5077226;27;45262;-58
2022/01/26 03:47:55;;;;;;;;;14.00;9.75;;;;;19.29;29.49;102905.53;5077362;27;45294;-59
2022/01/26 03:50:21;;;;;;;;;8.75;8.75;;;;;19.30;29.39;102904.63;5076734;27;45274;-58
2022/01/26 03:52:47;;;;;;;;;10.00;9.00;;;;;19.32;29.44;102913.38;5076546;27;46601;-55
2022/01/26 03:55:12;;;;;;;;;13.25;10.00;;;;;19.33;29.54;102908.97;5077339;27;45235;-59
2022/01/26 03:57:37;;;;;;;;;8.50;7.50;;;;;19.35;29.62;102908.03;5077121;27;45361;-56
2022/01/26 04:00:07;;;;;;;;;10.75;8.75;;;;;19.38;29.49;102917.66;5077374;27;45488;-57
2022/01/26 04:02:32;;;;;;;;;14.25;13.00;;;;;19.40;29.64;102913.25;5076903;27;47341;-58
2022/01/26 04:05:01;;;;;;;;;10.00;8.00;;;;;19.45;29.56;102914.88;5076553;27;45309;-56
2022/01/26 04:07:27;;;;;;;;;13.50;11.50;;;;;19.49;29.57;102910.44;5076903;27;45416;-57
2022/01/26 04:09:52;;;;;;;;;13.00;10.00;;;;;19.55;29.67;102912.94;5077096;27;45484;-60
2022/01/26 04:12:18;;;;;;;;;11.75;10.00;;;;;19.58;29.54;102910.25;5075317;28;47509;-56
2022/01/26 04:14:50;;;;;;;;;9.25;9.25;;;;;19.62;29.47;102917.19;5075790;27;45511;-59
2022/01/26 04:17:15;;;;;;;;;10.25;9.00;;;;;19.67;29.43;102909.25;5077136;28;45357;-60
2022/01/26 04:19:41;;;;;;;;;10.75;10.00;;;;;19.70;29.23;102906.53;5077079;27;45724;-60
2022/01/26 04:22:18;;;;;;;;;12.00;9.25;;;;;19.71;29.35;102900.38;5076446;27;47476;-59
2022/01/26 04:24:51;;;;;;;;;9.50;8.00;;;;;19.73;29.28;102893.31;5076827;27;45298;-59
2022/01/26 04:27:40;;;;;;;;;12.25;11.25;;;;;19.79;29.14;102892.34;5077012;27;45360;-59
2022/01/26 04:30:05;;;;;;;;;12.75;12.75;;;;;19.82;29.17;102907.19;5076778;27;45576;-61
2022/01/26 04:32:31;;;;;;;;;13.00;10.50;;;;;19.85;28.92;102901.88;5076331;28;46654;-58
2022/01/26 04:34:57;;;;;;;;;10.25;9.25;;;;;19.87;29.02;102897.50;5075143;28;45315;-59
2022/01/26 04:40:33;;;;;;;;;12.75;10.75;;;;;19.92;29.15;102898.25;5076735;27;45488;-62
2022/01/26 04:42:58;;;;;;;;;15.50;10.00;;;;;19.92;29.16;102895.63;5074332;28;46774;-59
2022/01/26 04:45:24;;;;;;;;;10.25;9.75;;;;;19.94;29.00;102901.72;5076511;27;45927;-59
2022/01/26 04:47:49;;;;;;;;;11.50;10.50;;;;;19.95;28.85;102897.34;5076607;27;45411;-56
2022/01/26 04:50:14;;;;;;;;;15.00;12.50;;;;;19.94;28.73;102891.19;5076894;27;45556;-58
2022/01/26 04:52:41;;;;;;;;;13.75;12.25;;;;;19.97;29.25;102895.53;5076129;27;45380;-53
2022/01/26 04:55:07;;;;;;;;;14.00;10.50;;;;;19.95;29.03;102898.19;5076166;28;45261;-59
2022/01/26 04:57:32;;;;;;;;;12.25;11.25;;;;;19.96;28.94;102896.41;5076321;27;45413;-57
2022/01/26 04:59:58;;;;;;;;;11.75;10.50;;;;;19.97;28.77;102899.03;5076516;28;45570;-57
2022/01/26 05:02:23;;;;;;;;;11.75;11.75;;;;;19.96;28.66;102894.66;5075870;28;45483;-60
2022/01/26 05:04:48;;;;;;;;;12.25;12.25;;;;;19.96;28.52;102885.88;5080056;27;45338;-61
2022/01/26 05:07:14;;;;;;;;;12.25;8.00;;;;;19.96;28.94;102889.41;5080001;28;45345;-59
2022/01/26 05:09:40;;;;;;;;;10.50;10.50;;;;;19.97;28.91;102896.41;5080005;27;45522;-60
2022/01/26 05:12:06;;;;;;;;;13.25;11.75;;;;;19.96;28.92;102899.94;5079419;27;45347;-60
2022/01/26 05:14:31;;;;;;;;;10.75;10.75;;;;;19.95;28.63;102887.66;5078232;27;45489;-57
2022/01/26 05:16:57;;;;;;;;;11.00;10.00;;;;;19.93;28.33;102879.81;5079754;27;45303;-57
2022/01/26 05:19:22;;;;;;;;;11.50;10.25;;;;;19.94;28.82;102880.66;5079811;27;45339;-55
2022/01/26 05:21:48;;;;;;;;;14.00;11.75;;;;;19.93;28.73;102890.34;5079769;27;45385;-55
2022/01/26 05:24:14;;;;;;;;;14.75;12.00;;;;;19.93;28.81;102886.81;5079508;27;45934;-58
2022/01/26 05:26:40;;;;;;;;;15.50;12.25;;;;;19.93;28.41;102894.72;5079701;27;45260;-57
2022/01/26 05:29:07;;;;;;;;;17.50;11.25;;;;;19.92;28.71;102888.59;5079673;27;45563;-55
2022/01/26 05:31:32;;;;;;;;;12.50;10.50;;;;;19.89;28.90;102872.88;5094971;27;46790;-59
2022/01/26 05:33:58;;;;;;;;;14.25;11.00;;;;;19.89;28.82;102882.53;5079177;27;45292;-59
2022/01/26 05:36:23;;;;;;;;;13.25;10.75;;;;;19.89;28.97;102877.28;5079457;27;45323;-60
2022/01/26 05:38:48;;;;;;;;;8.00;8.00;;;;;19.87;28.94;102876.44;5079858;27;45477;-58
2022/01/26 05:41:14;;;;;;;;;13.75;13.00;;;;;19.84;28.86;102868.56;5079023;27;45427;-56
2022/01/26 05:43:40;;;;;;;;;14.75;13.75;;;;;19.86;28.78;102869.44;5079179;27;45292;-60
2022/01/26 05:46:10;;;;;;;;;9.75;8.25;;;;;19.85;28.52;102870.31;5079325;27;45317;-59
2022/01/26 05:48:42;;;;;;;;;13.25;11.00;;;;;19.82;29.12;102863.34;5079289;27;45490;-61
2022/01/26 05:51:09;;;;;;;;;17.00;13.50;;;;;19.83;28.60;102869.47;5078908;27;46756;-61
2022/01/26 05:53:36;;;;;;;;;11.00;8.75;;;;;19.82;28.52;102872.97;5078845;27;45867;-60
2022/01/26 05:56:02;;;;;;;;;15.75;13.50;;;;;19.81;28.86;102876.50;5078977;28;45426;-58
2022/01/26 05:58:28;;;;;;;;;13.50;11.00;;;;;19.80;28.91;102872.13;5079338;27;45283;-60
2022/01/26 06:00:57;;;;;;;;;14.50;12.00;;;;;19.78;28.72;102873.06;5078953;28;45573;-60
2022/01/26 06:03:22;;;;;;;;;14.00;13.25;;;;;19.77;28.72;102867.81;5079052;27;45942;-53
2022/01/26 06:05:48;;;;;;;;;15.50;11.25;;;;;19.76;29.06;102871.34;5079343;27;45783;-58
2022/01/26 06:08:13;;;;;;;;;13.75;12.50;;;;;19.74;29.25;102875.75;5079040;27;45671;-56
2022/01/26 06:10:38;;;;;;;;;14.75;13.75;;;;;19.73;29.16;102877.53;5078583;27;46400;-61
2022/01/26 06:13:04;;;;;;;;;13.75;13.00;;;;;19.72;28.67;102875.78;5078352;27;45421;-57
2022/01/26 06:15:29;;;;;;;;;17.50;13.00;;;;;19.72;28.80;102888.09;5077676;27;45354;-54
2022/01/26 06:17:54;;;;;;;;;11.75;11.00;;;;;19.68;29.22;102882.00;5078966;27;45369;-55
2022/01/26 06:20:20;;;;;;;;;13.75;10.00;;;;;19.67;28.88;102892.56;5078827;27;46162;-60
2022/01/26 06:22:45;;;;;;;;;16.75;13.75;;;;;19.67;28.94;102897.84;5078416;27;45390;-53
2022/01/26 06:25:11;;;;;;;;;16.75;12.75;;;;;19.66;29.05;102896.09;5078653;27;45317;-56
2022/01/26 06:27:38;;;;;;;;;14.75;13.75;;;;;19.65;29.29;102911.03;5078759;27;45333;-57
2022/01/26 06:30:05;;;;;;;;;15.50;14.25;;;;;19.63;28.93;102908.41;5078298;27;46313;-58
2022/01/26 06:32:31;;;;;;;;;14.00;12.75;;;;;19.61;29.10;102915.47;5078517;27;45526;-53
2022/01/26 06:34:57;;;;;;;;;15.75;12.75;;;;;19.61;29.18;102933.00;5078437;27;45325;-54
2022/01/26 06:37:22;;;;;;;;;15.00;12.50;;;;;19.58;28.92;102933.94;5077730;27;45265;-60
2022/01/26 06:39:48;;;;;;;;;15.00;14.00;;;;;19.58;29.15;102936.56;5078223;27;46352;-60
2022/01/26 06:42:17;;;;;;;;;14.00;14.00;;;;;19.57;28.87;102939.22;5078436;27;45316;-60
2022/01/26 06:44:53;;;;;;;;;15.25;13.50;;;;;19.56;29.45;102937.50;5076939;28;45273;-59
2022/01/26 06:47:35;;;;;;;;;17.50;14.75;;;;;19.54;29.16;102945.41;5078413;27;45211;-61
2022/01/26 06:50:02;;;;;;;;;16.50;13.75;;;;;19.54;28.97;102960.31;5078001;27;47518;-60
2022/01/26 06:52:27;;;;;;;;;15.00;12.75;;;;;19.52;28.99;102962.97;5078135;27;45820;-59
2022/01/26 06:54:52;;;;;;;;;14.25;10.50;;;;;19.51;29.03;102966.53;5079492;27;45272;-58
2022/01/26 06:57:17;;;;;;;;;18.00;15.50;;;;;19.49;29.11;102955.16;5078307;27;45675;-56
2022/01/26 06:59:43;;;;;;;;;14.75;14.25;;;;;19.49;28.84;102955.16;5076451;28;48186;-56
2022/01/26 07:02:08;;;;;;;;;16.00;15.00;;;;;19.47;29.29;102955.16;5077902;27;45348;-57
2022/01/26 07:04:34;;;;;;;;;17.50;15.25;;;;;19.46;28.97;102957.81;5077931;27;45263;-56
2022/01/26 07:06:59;;;;;;;;;19.00;14.50;;;;;19.44;28.83;102955.22;5078239;27;45321;-56
2022/01/26 07:09:24;;;;;;;;;14.75;14.75;;;;;19.44;29.00;102954.34;5077963;27;47230;-60
2022/01/26 07:11:50;;;;;;;;;8.25;7.00;;;;;19.42;28.99;102957.00;5076535;28;45335;-59
2022/01/26 07:19:51;;;;;;;;;19.00;18.00;;;;;19.41;29.11;102950.00;5077292;27;45321;-55
2022/01/26 07:22:16;;;;;;;;;18.25;16.25;;;;;19.42;29.25;102948.22;5077660;27;45421;-59
2022/01/26 07:24:42;;;;;;;;;15.00;12.25;;;;;19.43;29.43;102944.72;5077671;27;45421;-57
2022/01/26 07:27:07;;;;;;;;;17.00;14.00;;;;;19.45;29.30;102941.19;5077738;27;45564;-59
2022/01/26 07:29:33;;;;;;;;;14.25;14.00;;;;;19.49;29.28;102946.38;5077437;27;46077;-59
2022/01/26 07:31:59;;;;;;;;;14.75;14.50;;;;;19.51;29.15;102949.84;5077424;27;45326;-59
2022/01/26 07:34:24;;;;;;;;;16.00;13.00;;;;;19.55;29.02;102947.13;5077843;28;45237;-60
2022/01/26 07:36:53;;;;;;;;;16.50;14.25;;;;;19.60;28.99;102958.47;5077581;27;45157;-58
2022/01/26 07:39:29;;;;;;;;;17.00;14.00;;;;;19.63;29.09;102962.78;5077045;27;46688;-59
2022/01/26 07:41:55;;;;;;;;;15.75;14.00;;;;;19.69;29.07;102967.94;5077533;27;45261;-59
2022/01/26 07:44:21;;;;;;;;;17.00;14.00;;;;;19.72;28.89;102956.50;5075941;28;45221;-55
2022/01/26 07:46:46;;;;;;;;;14.50;11.50;;;;;19.76;29.15;102956.41;5077734;27;46012;-58
2022/01/26 07:49:12;;;;;;;;;13.75;13.50;;;;;19.78;28.93;102959.00;5077018;27;46731;-57
2022/01/26 07:51:37;;;;;;;;;16.50;14.25;;;;;19.83;28.86;102966.81;5077306;27;45334;-59
2022/01/26 07:54:03;;;;;;;;;18.50;15.25;;;;;19.85;28.87;102970.28;5077203;27;45323;-58
2022/01/26 07:56:29;;;;;;;;;16.75;15.75;;;;;19.88;28.87;102967.66;5077226;27;45524;-58
2022/01/26 07:58:55;;;;;;;;;15.50;12.25;;;;;19.91;29.26;102971.09;5077130;27;47287;-56
2022/01/26 08:01:21;;;;;;;;;23.00;14.50;;;;;19.93;28.86;102973.69;5075294;28;45459;-58
2022/01/26 08:03:47;;;;;;;;;18.00;13.25;;;;;19.94;28.86;102980.69;5076964;27;45312;-60
2022/01/26 08:06:15;;;;;;;;;18.50;14.50;;;;;19.97;29.10;102971.84;5077225;27;45643;-60
2022/01/26 08:08:40;;;;;;;;;14.75;13.25;;;;;19.99;29.03;102975.31;5076688;27;45339;-59
2022/01/26 08:11:06;;;;;;;;;14.50;13.75;;;;;20.00;28.85;102966.53;5076637;27;45291;-59
2022/01/26 08:13:31;;;;;;;;;15.25;14.00;;;;;20.01;29.04;102965.63;5077038;27;45216;-60
2022/01/26 08:15:57;;;;;;;;;15.25;13.00;;;;;20.00;29.02;102954.25;5077298;27;45216;-60
2022/01/26 08:18:24;;;;;;;;;17.75;15.50;;;;;20.02;29.06;102946.31;5076635;27;46279;-60
2022/01/26 08:20:50;;;;;;;;;14.75;12.50;;;;;20.02;28.57;102952.44;5076555;27;45860;-60
2022/01/26 08:23:17;;;;;;;;;17.00;15.00;;;;;20.03;28.58;102959.44;5075301;27;45258;-60
2022/01/26 08:25:42;;;;;;;;;17.75;15.25;;;;;20.04;28.81;102958.53;5076633;27;45614;-60
2022/01/26 08:28:14;;;;;;;;;19.00;16.75;;;;;20.04;28.91;102944.53;5074894;28;47050;-59
2022/01/26 08:30:41;;;;;;;;;18.50;15.00;;;;;20.04;28.88;102941.91;5076234;27;45342;-56
2022/01/26 08:33:07;;;;;;;;;13.25;13.25;;;;;20.04;28.82;102942.75;5076387;27;45868;-59
2022/01/26 08:35:34;;;;;;;;;16.50;15.00;;;;;20.03;28.56;102942.78;5075238;28;45431;-59
2022/01/26 08:37:59;;;;;;;;;17.25;14.75;;;;;20.03;28.78;102962.06;5076025;28;45715;-59
2022/01/26 08:40:26;;;;;;;;;17.00;13.50;;;;;20.03;28.25;102948.06;5076546;27;45459;-60
2022/01/26 08:42:51;;;;;;;;;17.50;14.50;;;;;20.01;28.40;102929.66;5092249;27;45320;-60
2022/01/26 08:45:17;;;;;;;;;20.00;15.50;;;;;20.03;28.63;102942.78;5076591;27;45355;-60
2022/01/26 08:47:42;;;;;;;;;17.50;15.25;;;;;19.98;28.37;102945.53;5076149;27;46174;-59
2022/01/26 08:50:08;;;;;;;;;16.25;12.50;;;;;20.01;28.43;102955.97;5076206;27;45226;-60
2022/01/26 08:52:34;;;;;;;;;18.75;17.00;;;;;19.99;28.24;102965.69;5076111;27;45390;-60
2022/01/26 08:54:59;;;;;;;;;20.00;16.25;;;;;20.00;28.65;102966.53;5076484;27;45632;-59
2022/01/26 08:57:24;;;;;;;;;16.50;14.75;;;;;19.98;28.37;102968.31;5091607;27;48335;-60
2022/01/26 08:59:50;;;;;;;;;18.25;17.00;;;;;19.97;28.22;102964.84;5076079;27;45506;-58
2022/01/26 09:02:15;;;;;;;;;21.25;18.25;;;;;19.96;28.63;102968.38;5074919;27;45816;-58
2022/01/26 09:04:41;;;;;;;;;16.00;16.00;;;;;19.94;28.14;102970.16;5076457;27;45904;-60
2022/01/26 09:07:06;;;;;;;;;19.75;18.25;;;;;19.94;28.61;102980.69;5075974;27;46314;-58
2022/01/26 09:09:42;;;;;;;;;16.75;14.75;;;;;19.93;28.32;102969.28;5074509;27;45416;-58
2022/01/26 09:12:09;;;;;;;;;18.50;17.00;;;;;19.91;28.41;102970.19;5075851;27;45310;-60
2022/01/26 09:14:35;;;;;;;;;17.00;16.25;;;;;19.89;28.54;102969.38;5074706;28;45359;-61
2022/01/26 09:17:02;;;;;;;;;19.50;16.75;;;;;19.89;28.80;102977.28;5075965;27;46362;-61
2022/01/26 09:19:29;;;;;;;;;13.00;12.00;;;;;19.89;28.81;102982.53;5076119;27;45835;-59
2022/01/26 09:21:57;;;;;;;;;21.00;15.50;;;;;19.88;28.64;102996.59;5075863;27;45201;-59
2022/01/26 09:24:26;;;;;;;;;19.25;16.25;;;;;19.86;28.82;102993.13;5074659;28;45383;-60
2022/01/26 09:26:51;;;;;;;;;20.50;16.75;;;;;19.85;28.98;102992.19;5075614;27;45384;-60
2022/01/26 09:29:17;;;;;;;;;16.75;14.00;;;;;19.84;28.75;102994.88;5075822;27;45174;-61
2022/01/26 09:31:42;;;;;;;;;19.00;16.25;;;;;19.82;28.83;102996.66;5075953;27;45373;-60
2022/01/26 09:34:08;;;;;;;;;14.25;14.00;;;;;19.82;29.09;103012.44;5075791;27;45341;-59
2022/01/26 09:36:33;;;;;;;;;17.75;16.50;;;;;19.80;28.44;103012.47;5075333;27;45548;-58
2022/01/26 09:38:58;;;;;;;;;19.50;16.75;;;;;19.78;28.86;103003.75;5074639;27;45288;-61
2022/01/26 09:41:25;;;;;;;;;15.50;14.00;;;;;19.78;28.58;102998.47;5075821;27;45297;-61
2022/01/26 09:43:51;;;;;;;;;17.50;15.00;;;;;19.75;28.72;102994.16;5075683;27;45350;-59
2022/01/26 09:46:16;;;;;;;;;21.50;16.25;;;;;19.74;28.73;103010.81;5075349;27;46076;-60
2022/01/26 09:48:43;;;;;;;;;18.25;15.25;;;;;19.73;29.02;103009.09;5091029;27;46221;-62
2022/01/26 09:51:13;;;;;;;;;21.00;17.00;;;;;19.73;28.83;103024.88;5077659;27;45395;-60
2022/01/26 09:53:39;;;;;;;;;23.00;15.00;;;;;19.70;28.89;103027.56;5079212;27;45608;-60
2022/01/26 09:56:04;;;;;;;;;18.50;16.00;;;;;19.70;29.22;103030.19;5078851;27;45486;-59
2022/01/26 09:58:30;;;;;;;;;17.00;15.25;;;;;19.69;28.97;103032.84;5079170;27;45260;-61
2022/01/26 10:01:00;;;;;;;;;16.00;16.00;;;;;19.68;28.83;103031.09;5079067;27;45262;-57
2022/01/26 10:03:31;;;;;;;;;17.25;17.25;;;;;19.67;28.64;103029.38;5079074;27;45539;-58
2022/01/26 10:05:57;;;;;;;;;14.00;14.00;;;;;19.65;28.66;103031.16;5078725;27;45355;-59
2022/01/26 10:08:52;;;;;;;;;20.00;14.25;;;;;19.64;28.79;103040.81;5078739;27;45816;-59
2022/01/26 10:19:09;;;;;;;;;20.25;16.25;;;;;19.58;28.88;103039.16;5078794;27;45980;-61
2022/01/26 10:21:52;;;;;;;;;20.25;17.75;;;;;19.58;28.65;103031.28;5078547;27;45284;-57
2022/01/26 10:24:20;;;;;;;;;19.25;16.50;;;;;19.55;28.87;103020.78;5078873;27;45585;-57
2022/01/26 10:26:50;;;;;;;;;17.00;17.00;;;;;19.54;28.81;103028.72;5078178;27;46435;-60
2022/01/26 10:29:16;;;;;;;;;20.25;16.25;;;;;19.52;29.21;103025.22;5078462;28;46009;-59
2022/01/26 10:31:42;;;;;;;;;18.50;16.25;;;;;19.52;29.04;103027.88;5094245;27;45347;-61
2022/01/26 10:34:15;;;;;;;;;18.50;16.50;;;;;19.51;29.09;103024.38;5078700;27;45294;-60
2022/01/26 10:36:47;;;;;;;;;16.25;13.25;;;;;19.47;28.89;103012.16;5078180;27;47302;-61
2022/01/26 10:39:21;;;;;;;;;17.00;13.75;;;;;19.47;29.14;103002.50;5078207;27;45287;-61
2022/01/26 10:41:50;;;;;;;;;15.25;15.00;;;;;19.48;28.95;103008.63;5078222;27;45382;-61
2022/01/26 10:44:17;;;;;;;;;19.00;17.75;;;;;19.46;28.85;103029.69;5078720;27;45588;-60
2022/01/26 10:46:44;;;;;;;;;24.75;18.00;;;;;19.46;29.24;103039.34;5077951;27;46599;-59
2022/01/26 10:49:23;;;;;;;;;19.25;16.25;;;;;19.44;29.05;103023.59;5077991;27;45335;-59
2022/01/26 10:54:36;;;;;;;;;17.50;15.25;;;;;19.43;29.21;103016.59;5078356;27;45365;-59
2022/01/26 10:57:06;;;;;;;;;16.50;16.25;;;;;19.42;29.23;103009.59;5078132;27;47390;-60
2022/01/26 10:59:53;;;;;;;;;20.75;17.00;;;;;19.41;29.19;103013.13;5078204;27;45470;-57
2022/01/26 11:02:29;;;;;;;;;20.00;17.00;;;;;19.38;29.14;102999.16;5077696;27;45410;-60
2022/01/26 11:04:54;;;;;;;;;22.75;20.00;;;;;19.38;28.91;103012.31;5094041;27;45474;-60
2022/01/26 11:07:28;;;;;;;;;21.25;19.00;;;;;19.36;29.10;103007.06;5077850;27;46970;-59
2022/01/26 11:09:54;;;;;;;;;18.50;16.50;;;;;19.37;29.23;102995.66;5077896;27;45982;-60
2022/01/26 11:12:28;;;;;;;;;18.50;15.00;;;;;19.36;29.17;102993.91;5077678;27;45339;-60
2022/01/26 11:15:04;;;;;;;;;20.25;15.50;;;;;19.36;29.32;102993.91;5077616;27;45461;-60
2022/01/26 11:17:35;;;;;;;;;17.50;14.75;;;;;19.37;29.39;102990.38;5077747;27;45465;-60
2022/01/26 11:20:29;;;;;;;;;23.75;14.75;;;;;19.38;29.53;102984.25;5077380;27;45387;-57
2022/01/26 11:22:57;;;;;;;;;19.75;13.75;;;;;19.42;29.59;102991.19;5077613;27;45616;-56
2022/01/26 11:25:26;;;;;;;;;17.50;15.00;;;;;19.45;29.16;102975.38;5077848;27;45420;-60
2022/01/26 11:27:53;;;;;;;;;16.50;14.50;;;;;19.49;29.41;102968.31;5077322;28;45769;-60
2022/01/26 11:30:32;;;;;;;;;18.25;14.25;;;;;19.54;29.56;102976.09;5077470;27;45354;-59
2022/01/26 11:33:04;;;;;;;;;20.00;17.00;;;;;19.59;29.45;102971.63;5077577;27;45503;-60
2022/01/26 11:35:35;;;;;;;;;18.50;15.00;;;;;19.62;29.35;102972.44;5077558;27;45208;-61
2022/01/26 11:38:16;;;;;;;;;15.50;14.25;;;;;19.67;29.51;102967.13;5076966;27;45479;-58
2022/01/26 11:46:24;;;;;;;;;15.50;13.75;;;;;19.81;29.69;102974.75;5077413;28;45298;-60
2022/01/26 11:49:06;;;;;;;;;15.00;13.00;;;;;19.85;29.37;102957.13;5077093;27;46412;-61
2022/01/26 11:51:57;;;;;;;;;17.50;15.00;;;;;19.88;29.50;102943.97;5077321;27;45894;-61
2022/01/26 11:54:39;;;;;;;;;17.50;14.25;;;;;19.91;29.48;102939.50;5075053;28;45451;-61
2022/01/26 11:57:12;;;;;;;;;16.25;15.25;;;;;19.92;29.15;102929.81;5077666;27;45355;-60
2022/01/26 11:59:46;;;;;;;;;18.75;12.75;;;;;19.96;28.99;102941.16;5077199;27;47246;-56
2022/01/26 12:02:51;;;;;;;;;17.25;14.00;;;;;19.97;29.18;102928.00;5076949;27;45933;-61
2022/01/26 12:05:22;;;;;;;;;20.50;16.50;;;;;20.00;29.41;102924.41;5076923;27;45386;-57
2022/01/26 12:07:57;;;;;;;;;16.75;14.75;;;;;20.02;29.37;102928.75;5077191;27;45332;-59
2022/01/26 12:10:28;;;;;;;;;14.50;12.00;;;;;20.00;29.08;102917.41;5076724;27;45285;-60
2022/01/26 12:13:20;;;;;;;;;20.00;15.75;;;;;20.00;28.97;102906.88;5075713;27;45441;-61
2022/01/26 12:42:42;;;;;;;;;17.75;13.00;;;;;19.93;29.26;102914.03;5076470;28;45672;-59
2022/01/26 12:45:08;;;;;;;;;16.25;15.00;;;;;19.91;29.07;102922.81;5076722;28;45741;-54
2022/01/26 12:47:34;;;;;;;;;12.75;11.50;;;;;19.89;29.27;102919.38;5076565;27;45231;-55
2022/01/26 12:50:00;;;;;;;;;19.25;17.00;;;;;19.89;28.90;102924.66;5076682;28;45632;-57
2022/01/26 12:52:28;;;;;;;;;35.00;31.75;;;;;19.87;29.40;102929.06;5074692;28;46647;-62
2022/01/26 12:54:54;;;;;;;;;54.75;42.50;;;;;19.87;29.55;102923.81;5076169;27;45483;-60
2022/01/26 12:57:19;;;;;;;;;61.75;46.75;;;;;19.87;29.07;102927.28;5076378;28;45389;-57
2022/01/26 12:59:44;;;;;;;;;60.00;45.50;;;;;19.85;29.04;102917.66;5076412;27;45318;-58
2022/01/26 13:02:10;;;;;;;;;64.00;49.00;;;;;19.82;29.12;102904.56;5076560;27;46328;-54
2022/01/26 13:04:36;;;;;;;;;65.25;47.50;;;;;19.82;29.15;102909.81;5076549;27;45882;-61
2022/01/26 13:07:04;;;;;;;;;78.25;54.75;;;;;19.81;29.36;102903.72;5076191;27;45508;-59
2022/01/26 13:09:38;;;;;;;;;73.25;56.50;;;;;19.80;29.23;102895.81;5076361;27;45216;-60
2022/01/26 13:12:04;;;;;;;;;75.25;57.50;;;;;19.82;29.78;102904.56;5075833;27;46377;-61
2022/01/26 13:25:10;;;;;;;;;62.75;50.25;;;;;19.92;29.62;102888.59;5066513;27;45469;-65
2022/01/26 13:27:49;;;;;;;;;63.75;49.75;;;;;19.95;30.05;102898.19;5079595;27;45243;-57
2022/01/26 13:35:38;;;;;;;;;64.50;49.25;;;;;19.98;29.96;102898.13;5079181;27;45917;-56
2022/01/26 13:52:17;;;;;;;;;58.75;43.25;;;;;19.96;29.49;102893.78;5079309;27;45514;-53
2022/01/26 13:55:04;;;;;;;;;52.75;38.75;;;;;19.95;29.48;102892.06;5079223;27;46341;-59
2022/01/26 14:00:07;;;;;;;;;56.50;42.75;;;;;19.91;29.88;102885.97;5078907;27;45231;-59